Time;durP1;ratioP1;P1;durP2;ratioP2;P2;SDS_P1;SDS_P2;PMS_P1;PMS_P2;Temp;Humidity;BMP_temperature;BMP_pressure;BME280_temperature;BME280_humidity;BME280_pressure;Samples;Min_cycle;Max_cycle;Signal;HPM_P1;HPM_P2
2022/10/26 00:02:22;;;;;;;;;0.67;0.33;;;;;25.05;47.12;100797.78;5017655;28;45405;-71
2022/10/26 00:04:48;;;;;;;;;1.67;1.33;;;;;25.06;47.09;100799.41;5017806;28;45306;-72
2022/10/26 00:07:13;;;;;;;;;3.00;1.00;;;;;24.87;47.04;100775.22;5002779;28;52067;-71
2022/10/26 00:09:38;;;;;;;;;1.00;1.00;;;;;25.04;47.10;100796.97;5017010;28;47036;-72
2022/10/26 00:12:04;;;;;;;;;1.00;1.00;;;;;25.05;46.85;100797.78;5017840;28;45307;-71
2022/10/26 00:14:29;;;;;;;;;0.67;0.67;;;;;25.04;46.85;100802.28;5017427;28;45370;-71
2022/10/26 00:16:55;;;;;;;;;1.00;1.00;;;;;25.03;46.95;100807.84;5021241;28;45255;-71
2022/10/26 00:19:20;;;;;;;;;5.00;3.00;;;;;25.07;47.16;100817.03;5022133;28;46321;-71
2022/10/26 00:21:45;;;;;;;;;1.67;0.00;;;;;24.98;46.95;100788.94;5017531;28;45295;-71
2022/10/26 00:24:11;;;;;;;;;2.00;2.00;;;;;25.07;47.07;100801.06;5017560;28;45616;-72
2022/10/26 00:26:38;;;;;;;;;1.00;1.00;;;;;25.09;47.29;100808.84;5017787;28;45515;-71
2022/10/26 00:29:03;;;;;;;;;3.00;3.00;;;;;25.08;46.90;100824.03;5016990;28;46014;-71
2022/10/26 00:31:29;;;;;;;;;2.00;2.00;;;;;25.07;46.82;100817.03;5017281;28;45350;-71
2022/10/26 00:33:55;;;;;;;;;3.00;1.00;;;;;25.07;47.06;100831.19;5017663;28;45366;-71
2022/10/26 00:36:23;;;;;;;;;2.00;0.33;;;;;25.09;47.06;100833.63;5017316;28;45386;-71
2022/10/26 00:38:49;;;;;;;;;2.00;2.00;;;;;25.08;46.86;100842.66;5017181;28;47142;-71
2022/10/26 00:41:18;;;;;;;;;2.00;1.00;;;;;25.09;46.91;100836.28;5017365;28;45449;-71
2022/10/26 00:43:44;;;;;;;;;1.00;1.00;;;;;25.06;46.87;100832.19;5017033;28;45208;-71
2022/10/26 00:46:17;;;;;;;;;0.67;0.67;;;;;25.01;47.08;100821.31;5017227;28;45409;-71
2022/10/26 00:48:48;;;;;;;;;1.00;1.00;;;;;25.03;47.25;100826.47;5016213;28;46163;-71
2022/10/26 00:51:21;;;;;;;;;1.67;1.67;;;;;25.07;47.03;100827.69;5017124;28;45346;-71
2022/10/26 00:53:47;;;;;;;;;1.00;1.00;;;;;25.06;46.93;100831.34;5017195;28;45276;-71
2022/10/26 00:56:13;;;;;;;;;3.00;2.00;;;;;25.06;46.84;100834.03;5017158;28;45362;-71
2022/10/26 00:58:38;;;;;;;;;1.00;1.00;;;;;25.05;47.06;100829.75;5016638;28;46043;-71
2022/10/26 01:01:04;;;;;;;;;1.00;1.00;;;;;25.06;46.92;100831.34;5017035;28;45260;-71
2022/10/26 01:03:30;;;;;;;;;4.00;3.00;;;;;25.06;47.04;100837.50;5016871;28;45698;-71
2022/10/26 01:05:58;;;;;;;;;2.00;2.00;;;;;25.02;46.68;100832.78;5014481;28;45240;-71
2022/10/26 01:08:26;;;;;;;;;2.33;2.00;;;;;24.99;46.80;100822.50;5005737;28;45536;-71
2022/10/26 01:10:53;;;;;;;;;2.00;0.33;;;;;25.07;46.92;100833.84;5016633;28;45452;-71
2022/10/26 01:13:19;;;;;;;;;1.00;1.00;;;;;25.07;47.06;100833.00;5016612;28;45377;-71
2022/10/26 01:15:52;;;;;;;;;1.67;1.33;;;;;25.07;47.14;100833.84;5016733;28;45516;-71
2022/10/26 01:18:39;;;;;;;;;2.67;1.67;;;;;25.07;46.89;100827.69;5024381;28;47445;-71
2022/10/26 01:21:38;;;;;;;;;1.33;1.33;;;;;25.06;46.85;100816.22;5016525;28;45623;-71
2022/10/26 01:24:17;;;;;;;;;1.67;1.67;;;;;25.07;47.03;100825.84;5016759;28;45347;-71
2022/10/26 01:27:09;;;;;;;;;0.67;0.67;;;;;25.05;46.98;100835.88;5016274;28;45451;-71
2022/10/26 01:29:49;;;;;;;;;2.00;1.00;;;;;25.06;47.00;100852.66;5016287;28;45351;-71
2022/10/26 01:32:24;;;;;;;;;4.67;2.00;;;;;25.05;46.91;100846.53;5016558;28;45434;-71
2022/10/26 01:34:58;;;;;;;;;1.00;1.00;;;;;25.02;47.12;100851.44;5030820;28;45342;-71
2022/10/26 01:37:29;;;;;;;;;2.00;2.00;;;;;24.99;46.80;100846.47;5016279;28;45517;-71
2022/10/26 01:40:12;;;;;;;;;2.33;1.00;;;;;25.03;46.98;100853.09;5016412;28;45363;-71
2022/10/26 01:42:43;;;;;;;;;1.67;1.67;;;;;24.94;47.12;100844.41;5016099;28;45318;-71
2022/10/26 01:45:11;;;;;;;;;1.00;1.00;;;;;25.01;47.03;100855.91;5016390;28;45298;-71
2022/10/26 01:47:38;;;;;;;;;2.67;1.00;;;;;25.02;46.94;100859.41;5016456;28;45667;-71
2022/10/26 01:50:06;;;;;;;;;2.67;1.00;;;;;25.02;47.04;100857.56;5016053;28;47062;-71
2022/10/26 01:52:31;;;;;;;;;2.00;2.00;;;;;24.94;47.18;100860.38;5016151;28;45442;-71
2022/10/26 01:55:06;;;;;;;;;2.33;1.33;;;;;25.03;47.01;100869.06;5014797;28;45642;-71
2022/10/26 01:57:35;;;;;;;;;1.67;1.00;;;;;25.03;47.11;100875.16;5015663;28;45559;-71
2022/10/26 02:00:09;;;;;;;;;2.33;1.00;;;;;25.02;46.96;100867.41;5015961;28;45327;-71
2022/10/26 02:03:11;;;;;;;;;1.00;1.00;;;;;25.03;46.81;100861.88;5003197;28;45359;-71
2022/10/26 02:06:05;;;;;;;;;3.00;1.00;;;;;25.03;47.06;100869.06;4973983;28;45390;-72
2022/10/26 02:09:06;;;;;;;;;4.33;1.33;;;;;25.04;46.81;100883.97;4974214;28;45468;-71
2022/10/26 02:11:49;;;;;;;;;2.00;2.00;;;;;25.04;46.73;100878.66;4973949;28;46137;-71
2022/10/26 02:14:25;;;;;;;;;1.33;1.00;;;;;25.03;47.04;100874.38;4973690;28;46417;-71
2022/10/26 02:16:54;;;;;;;;;2.00;1.00;;;;;25.03;47.14;100875.16;4977123;28;45496;-71
2022/10/26 02:19:29;;;;;;;;;0.67;0.67;;;;;25.03;47.19;100869.06;4978619;28;45363;-71
2022/10/26 02:22:45;;;;;;;;;1.33;1.33;;;;;25.02;46.82;100865.56;4973846;28;46400;-71
2022/10/26 02:25:16;;;;;;;;;1.00;1.00;;;;;25.03;47.30;100867.19;4877695;29;45455;-71
2022/10/26 02:27:48;;;;;;;;;1.00;1.00;;;;;25.03;47.14;100871.72;4878111;29;45499;-71
2022/10/26 02:30:13;;;;;;;;;1.00;1.00;;;;;24.99;46.90;100867.75;4877991;29;45898;-71
2022/10/26 02:32:46;;;;;;;;;2.33;1.00;;;;;24.92;47.01;100873.06;4877940;29;47191;-71
2022/10/26 02:35:16;;;;;;;;;1.67;1.67;;;;;25.03;47.02;100895.66;4877818;29;45392;-71
2022/10/26 02:37:45;;;;;;;;;2.00;2.00;;;;;25.01;46.82;100892.38;4877785;29;45671;-71
2022/10/26 02:40:15;;;;;;;;;1.00;1.00;;;;;24.96;47.33;100883.13;4881039;28;45547;-71
2022/10/26 02:42:44;;;;;;;;;1.67;1.00;;;;;24.99;46.77;100884.56;4926703;28;46108;-71
2022/10/26 02:45:15;;;;;;;;;1.00;1.00;;;;;25.02;47.23;100894.84;4934640;28;45381;-71
2022/10/26 02:47:40;;;;;;;;;0.67;0.67;;;;;25.01;46.82;100890.53;4935140;28;45505;-71
2022/10/26 02:50:06;;;;;;;;;2.00;1.00;;;;;25.02;47.07;100888.69;4934767;28;45360;-71
2022/10/26 02:52:37;;;;;;;;;3.00;2.00;;;;;25.01;46.98;100882.53;4918628;28;47281;-71
2022/10/26 02:55:12;;;;;;;;;2.67;1.00;;;;;25.01;46.90;100884.41;4934132;28;45437;-71
2022/10/26 02:57:40;;;;;;;;;1.00;1.00;;;;;25.01;46.76;100885.19;4934779;28;45448;-71
2022/10/26 03:00:09;;;;;;;;;1.00;1.00;;;;;25.01;46.85;100895.84;4952602;28;45557;-71
2022/10/26 03:02:34;;;;;;;;;3.00;2.00;;;;;25.02;47.04;100894.00;5015278;28;47240;-71
2022/10/26 03:05:17;;;;;;;;;3.50;1.00;;;;;25.01;47.02;100900.38;5013672;28;45452;-72
2022/10/26 03:07:43;;;;;;;;;3.00;1.00;;;;;25.02;47.05;100912.66;4998568;28;45456;-71
2022/10/26 03:10:09;;;;;;;;;0.00;0.00;;;;;24.84;47.04;100882.88;5014984;28;45364;-72
2022/10/26 03:12:34;;;;;;;;;1.00;1.00;;;;;25.00;47.10;100917.31;5018520;28;46950;-71
2022/10/26 03:14:59;;;;;;;;;1.00;0.00;;;;;25.00;46.94;100914.66;5018365;28;48977;-71
2022/10/26 03:17:25;;;;;;;;;1.33;1.33;;;;;24.99;47.13;100913.84;5026244;28;45624;-72
2022/10/26 03:19:50;;;;;;;;;1.00;1.00;;;;;25.00;47.03;100917.31;5019201;28;45329;-71
2022/10/26 03:22:15;;;;;;;;;2.00;2.00;;;;;25.00;47.04;100922.66;5018119;28;46089;-72
2022/10/26 03:24:40;;;;;;;;;2.33;1.33;;;;;24.92;46.86;100910.31;5018206;28;45311;-71
2022/10/26 03:27:06;;;;;;;;;2.00;2.00;;;;;24.73;47.11;100881.59;5018687;28;45373;-71
2022/10/26 03:29:31;;;;;;;;;1.00;1.00;;;;;24.98;47.06;100919.38;5018091;28;45362;-71
2022/10/26 03:31:56;;;;;;;;;2.00;1.00;;;;;24.99;47.00;100921.81;5018421;28;46099;-71
2022/10/26 03:34:22;;;;;;;;;3.00;1.00;;;;;25.00;47.01;100927.97;5018246;28;45454;-71
2022/10/26 03:36:47;;;;;;;;;1.00;1.00;;;;;25.01;47.03;100932.31;5018410;28;45390;-71
2022/10/26 03:39:13;;;;;;;;;2.00;0.33;;;;;24.95;46.85;100915.25;5018249;28;45560;-72
2022/10/26 03:41:38;;;;;;;;;2.00;2.00;;;;;24.90;47.13;100915.03;5017869;28;46178;-71
2022/10/26 03:44:04;;;;;;;;;1.00;1.00;;;;;24.92;47.02;100923.63;5018121;28;45322;-71
2022/10/26 03:46:29;;;;;;;;;1.00;1.00;;;;;25.00;47.31;100944.75;5018245;28;45310;-71
2022/10/26 03:48:54;;;;;;;;;2.33;1.00;;;;;25.00;47.01;100941.28;5018107;28;45334;-71
2022/10/26 03:51:20;;;;;;;;;1.67;1.67;;;;;24.99;47.26;100942.28;5018034;28;47800;-72
2022/10/26 03:53:45;;;;;;;;;2.33;0.33;;;;;24.98;47.19;100936.16;5017519;28;45437;-71
2022/10/26 03:56:10;;;;;;;;;2.00;1.00;;;;;24.99;46.92;100948.44;5018186;28;45216;-71
2022/10/26 03:58:36;;;;;;;;;2.00;0.67;;;;;24.99;47.05;100945.78;5018131;28;45391;-71
2022/10/26 04:01:01;;;;;;;;;1.67;1.67;;;;;24.94;46.86;100949.03;5017962;28;46445;-71
2022/10/26 04:03:26;;;;;;;;;1.67;1.00;;;;;24.99;47.05;100948.44;5016340;28;47395;-71
2022/10/26 04:05:51;;;;;;;;;1.00;1.00;;;;;24.90;47.17;100939.81;5015417;28;46358;-71
2022/10/26 04:08:17;;;;;;;;;0.67;0.67;;;;;24.92;47.04;100942.25;5005829;28;45417;-71
2022/10/26 04:10:45;;;;;;;;;1.00;0.33;;;;;24.91;46.94;100930.78;5017656;28;47127;-72
2022/10/26 04:13:11;;;;;;;;;1.00;1.00;;;;;24.96;47.08;100943.50;5017741;28;45346;-71
2022/10/26 04:15:36;;;;;;;;;1.00;1.00;;;;;24.95;47.12;100940.03;5017788;28;45535;-74
2022/10/26 04:18:02;;;;;;;;;2.67;1.00;;;;;24.88;46.59;100935.72;5025682;28;45409;-71
2022/10/26 04:20:29;;;;;;;;;0.33;0.33;;;;;24.98;47.04;100961.94;5017578;28;46173;-71
2022/10/26 04:23:03;;;;;;;;;1.00;1.00;;;;;24.96;47.05;100954.97;5016799;28;45406;-71
2022/10/26 04:25:30;;;;;;;;;1.67;1.00;;;;;24.98;47.04;100961.94;5017607;28;45387;-71
2022/10/26 04:27:56;;;;;;;;;0.00;0.00;;;;;24.94;46.97;100957.03;5017588;28;45224;-74
2022/10/26 04:30:21;;;;;;;;;1.00;0.33;;;;;24.98;46.89;100973.44;5017523;28;45343;-74
2022/10/26 04:32:47;;;;;;;;;1.67;1.67;;;;;24.93;47.00;100973.19;5017443;28;45350;-75
2022/10/26 04:35:12;;;;;;;;;1.00;1.00;;;;;24.93;47.05;100978.53;5017108;28;45346;-72
2022/10/26 04:37:38;;;;;;;;;1.67;1.67;;;;;24.99;47.11;100987.53;5017358;28;45329;-72
2022/10/26 04:40:03;;;;;;;;;1.00;1.00;;;;;24.99;47.22;100999.00;5017249;28;45433;-72
2022/10/26 04:42:32;;;;;;;;;3.00;1.00;;;;;24.96;47.36;100994.91;5017213;28;45448;-72
2022/10/26 04:44:58;;;;;;;;;2.00;2.00;;;;;24.88;47.27;100992.38;5017194;28;45328;-72
2022/10/26 04:47:24;;;;;;;;;0.00;0.00;;;;;25.01;47.63;101025.47;5017266;28;45440;-72
2022/10/26 04:49:49;;;;;;;;;1.67;1.67;;;;;24.90;47.56;101008.19;5016618;28;46121;-75
2022/10/26 04:52:14;;;;;;;;;1.33;0.67;;;;;25.02;47.83;101027.94;5017106;28;45360;-73
2022/10/26 04:54:39;;;;;;;;;2.00;2.00;;;;;25.03;47.79;101032.22;5017430;28;45428;-73
2022/10/26 04:57:05;;;;;;;;;1.00;1.00;;;;;25.00;48.01;101026.44;5016894;28;45377;-73
2022/10/26 04:59:30;;;;;;;;;3.00;1.00;;;;;25.03;47.97;101029.56;5016998;28;46199;-73
2022/10/26 05:01:56;;;;;;;;;1.00;1.00;;;;;24.98;48.14;101023.16;5016929;28;47516;-73
2022/10/26 05:04:21;;;;;;;;;4.33;2.00;;;;;25.04;48.05;101031.22;5016496;28;45478;-73
2022/10/26 05:06:46;;;;;;;;;0.67;0.67;;;;;25.03;47.85;101032.22;5016683;28;45457;-73
2022/10/26 05:09:12;;;;;;;;;2.00;2.00;;;;;25.02;47.77;101027.94;5016611;28;46921;-73
2022/10/26 05:11:37;;;;;;;;;1.00;1.00;;;;;24.91;47.89;101021.28;5016790;28;45421;-73
2022/10/26 05:14:02;;;;;;;;;2.00;1.00;;;;;25.02;47.96;101030.59;5016785;28;45331;-73
2022/10/26 05:16:28;;;;;;;;;1.00;1.00;;;;;25.01;47.82;101034.25;5016666;28;45464;-73
2022/10/26 05:18:53;;;;;;;;;5.67;1.00;;;;;24.96;47.44;101023.34;5024263;28;45295;-73
2022/10/26 05:21:18;;;;;;;;;1.00;0.67;;;;;24.89;47.99;101022.50;5016389;28;45323;-74
2022/10/26 05:23:54;;;;;;;;;1.00;1.00;;;;;24.96;47.63;101040.16;5015228;28;46630;-73
2022/10/26 05:26:20;;;;;;;;;1.00;1.00;;;;;25.02;47.91;101040.41;5016520;28;45332;-74
2022/10/26 05:28:45;;;;;;;;;1.00;1.00;;;;;24.97;47.73;101046.28;5016265;28;47201;-73
2022/10/26 05:31:11;;;;;;;;;2.00;1.00;;;;;24.97;47.76;101043.63;5016118;28;45407;-74
2022/10/26 05:33:36;;;;;;;;;1.00;1.00;;;;;24.95;47.73;101051.00;5015485;28;45563;-73
2022/10/26 05:36:01;;;;;;;;;1.00;1.00;;;;;25.01;47.69;101060.88;5016637;28;45398;-74
2022/10/26 05:38:27;;;;;;;;;2.00;1.00;;;;;24.98;48.00;101058.59;5016529;28;45364;-73
2022/10/26 05:40:53;;;;;;;;;1.67;1.67;;;;;24.93;47.75;101045.84;5016387;28;45465;-74
2022/10/26 05:43:20;;;;;;;;;2.00;0.00;;;;;25.02;47.61;101067.84;5016157;28;45424;-73
2022/10/26 05:45:46;;;;;;;;;3.00;1.00;;;;;25.02;47.68;101062.53;5016267;28;45474;-73
2022/10/26 05:48:11;;;;;;;;;3.00;1.33;;;;;24.96;47.74;101053.44;5015539;28;45428;-73
2022/10/26 05:50:37;;;;;;;;;2.00;2.00;;;;;25.02;47.79;101075.00;5016339;28;45326;-73
2022/10/26 05:53:02;;;;;;;;;1.33;1.33;;;;;25.02;47.61;101067.03;5016222;28;45470;-73
2022/10/26 05:55:28;;;;;;;;;2.33;1.00;;;;;24.93;47.91;101067.16;5015871;28;45282;-73
2022/10/26 05:57:54;;;;;;;;;0.00;0.00;;;;;25.02;47.84;101078.50;5015914;28;46310;-73
2022/10/26 06:00:22;;;;;;;;;1.67;1.00;;;;;24.99;47.86;101081.53;5015683;28;45253;-73
2022/10/26 06:03:23;;;;;;;;;2.67;1.00;;;;;25.00;47.84;101093.81;5015775;28;45322;-73
2022/10/26 06:05:58;;;;;;;;;1.33;1.33;;;;;24.98;47.56;101097.69;5014297;28;45360;-74
2022/10/26 06:08:27;;;;;;;;;1.00;1.00;;;;;25.00;47.70;101091.16;5004736;28;46874;-73
2022/10/26 06:10:55;;;;;;;;;1.00;1.00;;;;;24.94;47.63;101083.94;5015608;28;45612;-74
2022/10/26 06:13:21;;;;;;;;;1.00;1.00;;;;;24.92;47.78;101085.97;5016014;28;45430;-73
2022/10/26 06:16:17;;;;;;;;;1.33;0.67;;;;;24.99;47.78;101105.47;5015907;28;45256;-73
2022/10/26 06:19:00;;;;;;;;;2.00;1.00;;;;;24.99;47.52;101109.97;5022240;28;45517;-74
2022/10/26 06:21:40;;;;;;;;;1.00;1.00;;;;;25.00;47.82;101107.13;5015096;28;45369;-73
2022/10/26 06:24:29;;;;;;;;;0.00;0.00;;;;;24.90;48.00;101102.16;5015742;28;45382;-74
2022/10/26 06:27:16;;;;;;;;;3.33;1.00;;;;;24.99;47.50;101121.44;5015725;28;45355;-73
2022/10/26 06:29:57;;;;;;;;;3.00;1.67;;;;;24.98;47.69;101116.31;5015362;28;45473;-73
2022/10/26 06:32:25;;;;;;;;;0.67;0.67;;;;;24.98;47.78;101121.66;5015073;28;45325;-73
2022/10/26 06:35:01;;;;;;;;;1.00;1.00;;;;;24.98;47.92;101122.47;5015385;28;45326;-73
2022/10/26 06:37:29;;;;;;;;;0.67;0.67;;;;;24.88;47.85;101106.81;5015490;28;45430;-73
2022/10/26 06:39:56;;;;;;;;;1.67;1.67;;;;;24.97;47.73;101126.16;5015405;28;46404;-74
2022/10/26 06:42:21;;;;;;;;;1.00;1.00;;;;;24.89;47.70;101120.97;5015264;28;45356;-73
2022/10/26 06:44:47;;;;;;;;;1.00;1.00;;;;;24.83;47.85;101118.06;5014702;28;45363;-74
2022/10/26 06:47:21;;;;;;;;;2.00;0.00;;;;;24.96;48.00;101141.28;5014953;28;45451;-73
2022/10/26 06:50:04;;;;;;;;;1.00;1.00;;;;;24.90;47.53;101127.94;5015339;28;46138;-73
2022/10/26 06:53:01;;;;;;;;;1.00;1.00;;;;;24.97;47.64;101150.09;5015201;28;45284;-73
2022/10/26 06:55:40;;;;;;;;;1.00;0.33;;;;;24.98;47.43;101153.59;5005738;28;45442;-73
2022/10/26 06:58:14;;;;;;;;;0.67;0.67;;;;;24.96;47.67;101157.25;5015187;28;45501;-73
2022/10/26 07:00:39;;;;;;;;;1.00;1.00;;;;;24.99;47.56;101157.88;5014501;28;46719;-73
2022/10/26 07:03:04;;;;;;;;;1.00;1.00;;;;;24.94;47.49;101159.28;5014959;28;45334;-73
2022/10/26 07:05:30;;;;;;;;;0.33;0.33;;;;;24.89;47.58;101156.38;5015069;28;45281;-74
2022/10/26 07:07:55;;;;;;;;;2.00;1.00;;;;;24.99;47.72;101190.66;5001259;28;45328;-74
2022/10/26 07:10:20;;;;;;;;;2.00;0.00;;;;;24.93;47.51;101188.78;5015030;28;46247;-74
2022/10/26 07:12:46;;;;;;;;;1.00;1.00;;;;;24.94;47.73;101193.06;5014868;28;45312;-73
2022/10/26 07:15:11;;;;;;;;;1.33;0.33;;;;;24.99;48.03;101200.47;5014816;28;45295;-73
2022/10/26 07:17:44;;;;;;;;;3.00;1.33;;;;;24.94;47.43;101211.69;5023267;28;45295;-73
2022/10/26 07:20:11;;;;;;;;;0.00;0.00;;;;;24.94;47.49;101212.53;5014945;28;46293;-74
2022/10/26 07:22:36;;;;;;;;;0.00;0.00;;;;;24.98;47.71;101212.97;5014960;28;45339;-73
2022/10/26 07:25:02;;;;;;;;;1.00;1.00;;;;;24.99;47.87;101208.44;5014893;28;45284;-74
2022/10/26 07:27:27;;;;;;;;;2.00;1.67;;;;;24.93;47.81;101212.72;5014952;28;45337;-73
2022/10/26 07:29:53;;;;;;;;;1.00;0.00;;;;;24.99;47.67;101225.25;5014469;28;46076;-73
2022/10/26 07:32:18;;;;;;;;;1.00;0.00;;;;;24.99;47.36;101233.25;5014836;28;45469;-74
2022/10/26 07:34:43;;;;;;;;;1.00;1.00;;;;;24.89;47.72;101222.91;5014724;28;45394;-73
2022/10/26 07:37:08;;;;;;;;;0.00;0.00;;;;;24.86;47.68;101231.28;5014868;28;46542;-73
2022/10/26 07:39:34;;;;;;;;;1.00;1.00;;;;;24.99;47.55;101261.69;5014532;28;45339;-73
2022/10/26 07:41:59;;;;;;;;;2.00;1.33;;;;;24.91;47.85;101252.00;5014649;28;45374;-74
2022/10/26 07:44:24;;;;;;;;;1.67;1.00;;;;;24.93;47.82;101272.09;5014508;28;45275;-73
2022/10/26 07:46:50;;;;;;;;;0.33;0.33;;;;;24.98;47.37;101268.03;5014547;28;45232;-73
2022/10/26 07:49:16;;;;;;;;;1.00;1.00;;;;;24.90;47.84;101267.16;5014860;28;46320;-73
2022/10/26 07:51:41;;;;;;;;;0.67;0.67;;;;;24.90;47.95;101271.66;5014376;28;45339;-73
2022/10/26 07:54:06;;;;;;;;;1.00;1.00;;;;;24.95;47.64;101278.06;5014717;28;45336;-73
2022/10/26 07:56:32;;;;;;;;;0.33;0.33;;;;;24.84;47.76;101271.41;5015339;28;45391;-73
2022/10/26 07:58:57;;;;;;;;;1.00;1.00;;;;;24.94;47.77;101281.72;5017322;28;48033;-73
2022/10/26 08:01:23;;;;;;;;;1.00;1.00;;;;;24.96;47.59;101292.19;5017904;28;45362;-73
2022/10/26 08:03:52;;;;;;;;;1.00;1.00;;;;;24.95;47.83;101288.72;5018070;28;45338;-73
2022/10/26 08:06:18;;;;;;;;;4.00;1.00;;;;;24.95;47.54;101294.03;5012349;28;45557;-74
2022/10/26 08:08:43;;;;;;;;;1.00;1.00;;;;;24.96;47.53;101301.00;5009340;28;46031;-73
2022/10/26 08:11:08;;;;;;;;;0.67;0.00;;;;;24.91;47.90;101298.06;5017746;28;45315;-73
2022/10/26 08:13:34;;;;;;;;;1.00;1.00;;;;;24.98;47.63;101305.31;5017222;28;47927;-73
2022/10/26 08:16:02;;;;;;;;;1.00;1.00;;;;;24.92;47.60;101299.72;5017658;28;45345;-73
2022/10/26 08:18:27;;;;;;;;;1.00;1.00;;;;;25.00;47.53;101314.75;5025909;28;46119;-73
2022/10/26 08:20:53;;;;;;;;;1.00;1.00;;;;;25.00;47.55;101320.09;5017478;28;45405;-74
2022/10/26 08:23:18;;;;;;;;;2.67;0.33;;;;;24.99;47.72;101320.25;5017343;28;45374;-74
2022/10/26 08:25:44;;;;;;;;;1.00;0.00;;;;;25.01;47.61;101320.94;5017708;28;45473;-73
2022/10/26 08:28:09;;;;;;;;;2.00;0.00;;;;;25.01;47.50;101321.75;5016883;28;45491;-74
2022/10/26 08:30:34;;;;;;;;;1.00;1.00;;;;;25.00;47.58;101333.38;5017478;28;45471;-73
2022/10/26 08:33:05;;;;;;;;;2.00;1.00;;;;;25.00;47.47;101320.09;5017371;28;45820;-73
2022/10/26 08:35:31;;;;;;;;;0.00;0.00;;;;;25.01;47.67;101327.06;5017431;28;45540;-73
2022/10/26 08:37:56;;;;;;;;;1.00;1.00;;;;;25.01;47.62;101324.41;5017391;28;46560;-73
2022/10/26 08:40:33;;;;;;;;;1.00;1.00;;;;;25.01;47.54;101331.59;5017108;28;45496;-73
2022/10/26 08:43:28;;;;;;;;;1.33;1.33;;;;;25.00;47.66;101340.53;5016941;28;45773;-74
2022/10/26 08:46:10;;;;;;;;;0.00;0.00;;;;;24.86;47.42;101319.09;5006491;28;45323;-73
2022/10/26 08:48:41;;;;;;;;;1.00;1.00;;;;;24.98;47.60;101339.91;5017168;28;46124;-73
2022/10/26 08:51:17;;;;;;;;;1.33;1.33;;;;;24.99;47.59;101342.38;5017278;28;45346;-73
2022/10/26 08:53:46;;;;;;;;;0.33;0.00;;;;;24.97;47.73;101344.41;5017067;28;45432;-73
2022/10/26 08:56:35;;;;;;;;;1.00;1.00;;;;;24.96;47.65;101348.91;5016598;28;45375;-73
2022/10/26 08:59:11;;;;;;;;;3.00;2.00;;;;;24.93;47.40;101351.94;5010843;28;45275;-73
2022/10/26 09:01:36;;;;;;;;;0.67;0.67;;;;;24.89;47.45;101340.03;5017009;28;45362;-73
2022/10/26 09:04:03;;;;;;;;;1.00;1.00;;;;;24.95;47.53;101352.59;5029551;28;45392;-73
2022/10/26 09:07:04;;;;;;;;;2.00;0.33;;;;;24.96;47.51;101335.59;5010192;28;45289;-74
2022/10/26 09:09:42;;;;;;;;;1.00;1.00;;;;;24.96;47.67;101343.56;5010694;28;45618;-73
2022/10/26 09:12:31;;;;;;;;;2.00;2.00;;;;;24.96;47.52;101348.06;5016131;28;45466;-74
2022/10/26 09:15:15;;;;;;;;;0.00;0.00;;;;;24.98;47.60;101350.56;5003797;28;45660;-73
2022/10/26 09:18:01;;;;;;;;;0.67;0.67;;;;;24.96;47.56;101342.75;5025070;28;45452;-73
2022/10/26 09:20:57;;;;;;;;;1.00;1.00;;;;;24.88;47.84;101333.03;5016295;28;46137;-73
2022/10/26 09:23:33;;;;;;;;;0.67;0.67;;;;;24.95;47.73;101354.44;5016174;28;45425;-73
2022/10/26 09:26:01;;;;;;;;;2.00;1.00;;;;;24.91;47.61;101331.84;5016449;28;45523;-73
2022/10/26 09:28:34;;;;;;;;;0.33;0.33;;;;;24.98;47.67;101350.56;5003027;28;45502;-73
2022/10/26 09:31:00;;;;;;;;;0.00;0.00;;;;;24.97;47.71;101344.41;5016384;28;46369;-74
2022/10/26 09:33:28;;;;;;;;;1.00;1.00;;;;;24.95;47.82;101355.25;5016298;28;45377;-74
2022/10/26 09:36:01;;;;;;;;;0.00;0.00;;;;;25.00;47.61;101354.69;5016640;28;45386;-74
2022/10/26 09:38:33;;;;;;;;;1.00;1.00;;;;;25.00;47.79;101352.03;5016372;28;45515;-73
2022/10/26 09:41:04;;;;;;;;;2.00;0.67;;;;;25.01;47.82;101347.56;5015994;28;47088;-73
2022/10/26 09:44:00;;;;;;;;;0.67;0.00;;;;;25.01;47.57;101355.53;5015971;28;45355;-74
2022/10/26 09:46:31;;;;;;;;;1.00;0.33;;;;;25.00;47.71;101349.34;5015455;28;45335;-74
2022/10/26 09:49:05;;;;;;;;;1.00;1.00;;;;;24.90;47.98;101338.19;5016265;28;45495;-73
2022/10/26 09:51:35;;;;;;;;;1.00;1.00;;;;;25.01;47.71;101359.00;5016084;28;46144;-73
2022/10/26 09:54:02;;;;;;;;;1.00;1.00;;;;;24.97;47.29;101363.03;5016266;28;45478;-73
2022/10/26 09:56:30;;;;;;;;;0.33;0.33;;;;;25.02;47.61;101386.47;5016266;28;45334;-73
2022/10/26 09:59:04;;;;;;;;;1.00;1.00;;;;;25.03;47.56;101380.13;5016129;28;45331;-73
2022/10/26 10:01:31;;;;;;;;;1.00;1.00;;;;;25.02;47.69;101387.28;5015731;28;46282;-74
2022/10/26 10:04:12;;;;;;;;;1.00;1.00;;;;;25.02;47.62;101387.28;5015991;28;45461;-73
2022/10/26 10:06:45;;;;;;;;;1.00;1.00;;;;;25.02;47.62;101395.28;5007888;28;45475;-73
2022/10/26 10:09:12;;;;;;;;;0.33;0.33;;;;;25.03;47.61;101398.78;5011022;28;45345;-73
2022/10/26 10:11:56;;;;;;;;;0.00;0.00;;;;;25.03;47.62;101396.09;5015695;28;45432;-74
2022/10/26 10:14:43;;;;;;;;;0.33;0.33;;;;;25.04;47.52;101403.06;5015590;28;45376;-74
2022/10/26 10:17:19;;;;;;;;;0.67;0.67;;;;;25.03;47.68;101409.41;5020837;28;45460;-74
2022/10/26 10:19:45;;;;;;;;;0.33;0.00;;;;;24.96;47.82;101396.81;5016835;28;45267;-73
2022/10/26 10:22:21;;;;;;;;;1.67;1.67;;;;;25.02;47.41;101427.22;5015339;28;46307;-74
2022/10/26 10:24:59;;;;;;;;;0.00;0.00;;;;;25.03;47.73;101425.38;5015219;28;45244;-73
2022/10/26 10:27:27;;;;;;;;;0.00;0.00;;;;;25.02;47.52;101431.72;5015999;28;45336;-73
2022/10/26 10:29:57;;;;;;;;;0.00;0.00;;;;;25.03;47.59;101428.84;5015664;28;45453;-74
2022/10/26 10:32:26;;;;;;;;;1.00;1.00;;;;;25.02;47.74;101440.53;5015598;28;45425;-73
2022/10/26 10:34:54;;;;;;;;;1.00;1.00;;;;;25.01;47.75;101452.19;5015222;28;45329;-74
2022/10/26 10:37:30;;;;;;;;;0.00;0.00;;;;;25.03;47.70;101454.66;5015476;28;45365;-74
2022/10/26 10:39:59;;;;;;;;;0.00;0.00;;;;;25.03;47.67;101450.16;5015194;28;45300;-73
2022/10/26 10:42:29;;;;;;;;;1.00;1.00;;;;;24.96;47.73;101427.91;5015331;28;46235;-74
2022/10/26 10:44:56;;;;;;;;;0.00;0.00;;;;;24.97;47.68;101434.91;5015167;28;45382;-73
2022/10/26 10:47:27;;;;;;;;;1.00;0.00;;;;;24.94;47.49;101428.13;5015571;28;45394;-73
2022/10/26 10:50:18;;;;;;;;;2.00;0.67;;;;;25.06;47.79;101441.81;5015397;28;45448;-74
2022/10/26 10:52:43;;;;;;;;;0.67;0.67;;;;;25.06;47.53;101438.31;5015164;28;45386;-74
2022/10/26 10:55:11;;;;;;;;;1.00;1.00;;;;;25.07;47.66;101439.97;5015225;28;45553;-73
2022/10/26 10:57:37;;;;;;;;;1.33;1.33;;;;;25.06;47.75;101439.13;5015128;28;45462;-74
2022/10/26 11:00:05;;;;;;;;;0.00;0.00;;;;;24.95;47.51;101420.97;5015345;28;45854;-74
2022/10/26 11:02:48;;;;;;;;;1.00;1.00;;;;;25.07;47.75;101438.13;5015243;28;48368;-74
2022/10/26 11:05:41;;;;;;;;;0.33;0.33;;;;;25.09;47.50;101442.44;5015080;28;45555;-73
2022/10/26 11:08:17;;;;;;;;;1.33;0.67;;;;;25.10;47.55;101449.41;5001646;28;45771;-73
2022/10/26 11:10:51;;;;;;;;;1.00;1.00;;;;;25.10;47.42;101450.25;5015113;28;45464;-74
2022/10/26 11:13:26;;;;;;;;;0.67;0.67;;;;;25.01;47.42;101440.72;5014882;28;46420;-74
2022/10/26 11:15:58;;;;;;;;;0.33;0.33;;;;;24.99;47.65;101448.03;5014862;28;45472;-74
2022/10/26 11:18:32;;;;;;;;;0.00;0.00;;;;;25.09;47.20;101458.41;5023179;28;45361;-74
2022/10/26 11:21:18;;;;;;;;;0.00;0.00;;;;;25.11;47.48;101467.06;5014692;28;45412;-73
2022/10/26 11:23:51;;;;;;;;;0.00;0.00;;;;;25.11;47.44;101465.19;5014383;28;45291;-74
2022/10/26 11:26:31;;;;;;;;;2.00;1.00;;;;;24.95;47.48;101448.41;5014659;28;45328;-73
2022/10/26 11:29:02;;;;;;;;;1.00;0.00;;;;;25.11;47.56;101469.72;5014840;28;45334;-74
2022/10/26 11:31:37;;;;;;;;;1.00;1.00;;;;;25.12;47.42;101482.00;5015359;28;45607;-73
2022/10/26 11:34:11;;;;;;;;;0.00;0.00;;;;;25.12;47.49;101482.00;5018206;28;47084;-73
2022/10/26 11:36:40;;;;;;;;;1.00;1.00;;;;;25.10;47.33;101487.53;5017798;28;45386;-73
2022/10/26 11:39:30;;;;;;;;;0.00;0.00;;;;;25.02;47.69;101480.47;5018574;28;45384;-73
2022/10/26 11:42:16;;;;;;;;;0.33;0.33;;;;;25.02;47.22;101484.97;5018303;28;45394;-73